Airfield :
LOGIN :

Register | Disclaimer

   EN    FR    IT 

 










Legend :    VFR   Marginal VFR   IFR   Intensive IFR   Very Intensive IFR
Visi :
Ceiling :
>= 8 km
>= 3000ft
5 to 8 km
1000 to 3000 ft
1500m to 5 km
500 to 1000 ft
800 to 1500m
200 to 500 ft
< 800m
< 200 ft
Symbols :   Thunderstorms  Fog  Heavy snow  Heavy precipitations  Wind > 20 kt
SIGMETs :     Misc.  Thunderstorms  Icing  Turbulence  Mountain Waves  Volcanic Ashes






- Airport Elevation : 1345 ft
- IATA code : FRZ


ETHF - Fritzlar

CURRENT METAR :
  • 261020Z 24004KT 9999 BKN017 00/M03 Q1031 WHT WHT TEMPO GRN

EXPIRED METARs :
  • 260959Z 28007KT 9999 BKN014 00/M03 Q1031 GRN WHT TEMPO GRN
  • 260920Z 27005KT 9999 BKN016 00/M03 Q1031 WHT WHT TEMPO GRN
  • 260835Z 24006KT 9999 BKN015 M00/M04 Q1031 WHT WHT TEMPO GRN
  • 260820Z 26006KT 9999 BKN012 M00/M03 Q1031 GRN GRN

TAF TAF ETHF
Valid from the 26 at 09:00 until the 26 at 18:00 UTC


260820Z 2609/2618 26007KT 9999 NSW FEW010 BKN015
TEMPO 2609/2618 27005KT 7000 -DZ BKN007



MET'MAP, your aeronautical weather chart ! - Copyright ORBIFLY December 2007 - Disclaimer

ORBIFLY MET'MAP TEAM :

Programming & Development : Alexandra Zaïnal
Original concept : Baudouin d'Aumeries
Technical & hardware support : Manuel Goepfert
Assistance : Marc-Olivier Méhu

Contact : metmap@orbifly.com




SOURCES & CREDITS :

   NOAA